Time;durP1;ratioP1;P1;durP2;ratioP2;P2;SDS_P1;SDS_P2;PMS_P1;PMS_P2;Temp;Humidity;BMP_temperature;BMP_pressure;BME280_temperature;BME280_humidity;BME280_pressure;Samples;Min_cycle;Max_cycle;Signal;HPM_P1;HPM_P2
2022/03/15 00:00:25;;;;;;;3.88;2.63;;;;;;;21.92;35.31;102842.94;4774447;28;20170;-63
2022/03/15 00:02:50;;;;;;;4.85;2.90;;;;;;;21.80;35.28;102846.72;4774359;28;20767;-63
2022/03/15 00:05:17;;;;;;;5.10;3.05;;;;;;;21.82;35.36;102859.84;4773095;28;20706;-63
2022/03/15 00:07:44;;;;;;;4.68;3.10;;;;;;;21.78;35.36;102850.50;4771679;28;20909;-63
2022/03/15 00:10:12;;;;;;;4.22;2.65;;;;;;;21.71;35.60;102848.41;4772605;28;22199;-63
2022/03/15 00:12:41;;;;;;;4.03;2.55;;;;;;;21.68;35.50;102854.00;4772699;28;20718;-63
2022/03/15 00:15:10;;;;;;;3.20;2.47;;;;;;;21.62;35.79;102854.59;4767504;28;20751;-63
2022/03/15 00:17:36;;;;;;;6.07;2.80;;;;;;;21.55;35.98;102842.88;4771184;28;20608;-63
2022/03/15 00:20:05;;;;;;;5.60;2.78;;;;;;;21.54;35.84;102848.31;4769501;28;20079;-63
2022/03/15 00:22:33;;;;;;;4.10;2.70;;;;;;;21.51;36.08;102853.91;4770764;28;20045;-63
2022/03/15 00:25:05;;;;;;;5.15;2.80;;;;;;;21.48;35.83;102846.22;4770760;28;20835;-63
2022/03/15 00:27:32;;;;;;;3.45;2.45;;;;;;;21.46;35.85;102856.13;4772218;28;20042;-63
2022/03/15 00:29:59;;;;;;;3.47;2.40;;;;;;;21.44;35.74;102855.44;4770434;28;20049;-63
2022/03/15 00:32:25;;;;;;;4.45;2.80;;;;;;;21.45;35.92;102863.25;4770822;28;20849;-63
2022/03/15 00:34:51;;;;;;;3.03;2.60;;;;;;;21.43;35.69;102865.22;4772272;28;20792;-63
2022/03/15 00:37:18;;;;;;;3.20;2.42;;;;;;;21.41;35.72;102860.06;4772506;28;20717;-63
2022/03/15 00:39:43;;;;;;;3.42;2.60;;;;;;;21.30;35.67;102851.41;4769395;28;20135;-63
2022/03/15 00:42:10;;;;;;;5.10;2.92;;;;;;;21.37;35.83;102861.31;4773700;28;20969;-63
2022/03/15 00:44:36;;;;;;;3.95;2.63;;;;;;;21.27;36.12;102860.47;4771724;28;20541;-63
2022/03/15 00:47:02;;;;;;;4.22;2.35;;;;;;;21.28;35.77;102851.56;4771219;28;20789;-63
2022/03/15 00:49:28;;;;;;;4.28;2.60;;;;;;;21.30;35.98;102864.66;4770973;28;21134;-63
2022/03/15 00:51:54;;;;;;;3.83;2.78;;;;;;;21.27;35.80;102859.66;4772582;28;20561;-63
2022/03/15 00:54:23;;;;;;;4.85;2.80;;;;;;;21.27;35.80;102860.47;4755237;28;20588;-63
2022/03/15 00:56:50;;;;;;;5.55;3.05;;;;;;;21.10;35.84;102835.50;4771451;28;20808;-63
2022/03/15 00:59:16;;;;;;;5.90;2.53;;;;;;;21.23;35.82;102858.22;4773261;28;22336;-63
2022/03/15 01:01:41;;;;;;;3.15;2.53;;;;;;;21.21;35.64;102854.88;4772061;28;20717;-63
2022/03/15 01:04:08;;;;;;;5.80;2.88;;;;;;;21.22;35.93;102859.22;4776687;28;20541;-63
2022/03/15 01:06:35;;;;;;;3.88;2.53;;;;;;;21.23;35.64;102860.88;4771408;28;21559;-63
2022/03/15 01:09:02;;;;;;;4.78;2.80;;;;;;;21.21;35.64;102868.97;4771679;28;21066;-63
2022/03/15 01:11:28;;;;;;;5.32;2.50;;;;;;;21.10;35.65;102845.25;4772106;28;21132;-63
2022/03/15 01:13:53;;;;;;;4.70;2.80;;;;;;;21.12;35.87;102848.59;4771922;28;20707;-63
2022/03/15 01:16:19;;;;;;;3.78;2.30;;;;;;;21.16;35.83;102854.44;4772162;28;20991;-62
2022/03/15 01:18:45;;;;;;;5.53;2.70;;;;;;;21.10;35.84;102843.44;4772683;28;20944;-63
2022/03/15 01:21:13;;;;;;;4.40;2.47;;;;;;;21.15;35.59;102847.47;4771591;28;20049;-63
2022/03/15 01:23:40;;;;;;;5.65;2.80;;;;;;;21.13;35.70;102856.41;4771034;28;20100;-63
2022/03/15 01:26:05;;;;;;;3.85;2.63;;;;;;;21.05;35.75;102839.53;4774732;28;20949;-63
2022/03/15 01:28:31;;;;;;;2.55;2.13;;;;;;;20.94;35.82;102831.72;4769544;28;21116;-63
2022/03/15 01:30:56;;;;;;;4.50;2.63;;;;;;;20.98;35.87;102833.13;4752015;28;20673;-63
2022/03/15 01:33:23;;;;;;;3.90;2.45;;;;;;;21.06;36.08;102846.50;4769509;28;21680;-63
2022/03/15 01:35:48;;;;;;;2.92;2.10;;;;;;;21.03;35.91;102839.69;4772695;28;20727;-63
2022/03/15 01:38:14;;;;;;;4.32;2.63;;;;;;;21.02;35.98;102831.88;4771146;28;20554;-63
2022/03/15 01:40:40;;;;;;;4.95;2.92;;;;;;;21.06;35.56;102834.09;4766410;28;20505;-63
2022/03/15 01:43:09;;;;;;;4.93;2.92;;;;;;;21.05;35.53;102832.44;4769974;28;20568;-63
2022/03/15 01:45:40;;;;;;;4.88;2.70;;;;;;;21.04;35.59;102837.88;4753682;28;21474;-63
2022/03/15 01:48:07;;;;;;;4.18;2.78;;;;;;;21.00;35.78;102837.28;4771055;28;21427;-63
2022/03/15 01:50:34;;;;;;;5.70;2.72;;;;;;;21.02;35.62;102830.06;4753326;28;21300;-63
2022/03/15 01:53:00;;;;;;;2.53;2.10;;;;;;;20.89;35.58;102810.97;4769411;28;21584;-63
2022/03/15 01:55:26;;;;;;;3.33;2.50;;;;;;;21.00;35.61;102829.34;4768926;28;20753;-63
2022/03/15 01:57:53;;;;;;;3.83;2.70;;;;;;;20.98;35.65;102831.31;4747348;28;20927;-63
2022/03/15 02:00:20;;;;;;;3.42;2.47;;;;;;;20.94;35.66;102826.44;4769767;28;20172;-63
2022/03/15 02:02:53;;;;;;;3.72;2.45;;;;;;;20.95;35.51;102826.28;4774622;28;21163;-63
2022/03/15 02:05:19;;;;;;;3.85;2.47;;;;;;;20.96;35.41;102827.13;4774677;28;21154;-63
2022/03/15 02:07:45;;;;;;;3.90;2.70;;;;;;;20.97;35.60;102824.31;4773954;28;20664;-63
2022/03/15 02:10:11;;;;;;;4.97;2.60;;;;;;;20.93;35.66;102816.81;4775376;28;20755;-63
2022/03/15 02:12:38;;;;;;;4.43;2.65;;;;;;;20.94;35.65;102821.97;4775091;28;20159;-63
2022/03/15 02:15:06;;;;;;;4.43;2.70;;;;;;;20.91;35.60;102819.59;4775334;28;21093;-63
2022/03/15 02:17:32;;;;;;;3.67;2.30;;;;;;;20.84;35.45;102796.47;4778371;28;20631;-63
2022/03/15 02:19:58;;;;;;;4.03;2.65;;;;;;;20.91;35.36;102821.41;4774163;28;20743;-63
2022/03/15 02:22:24;;;;;;;3.95;2.53;;;;;;;20.90;35.49;102814.44;4775076;28;20882;-63
2022/03/15 02:24:50;;;;;;;3.35;2.30;;;;;;;20.92;35.45;102807.19;4774209;28;21728;-63
2022/03/15 02:27:16;;;;;;;5.05;2.58;;;;;;;20.87;35.55;102812.09;4775659;28;20073;-63
2022/03/15 02:29:42;;;;;;;3.40;2.17;;;;;;;20.73;35.47;102792.13;4771779;28;20984;-63
2022/03/15 02:32:08;;;;;;;3.70;2.47;;;;;;;20.72;35.81;102791.31;4774169;28;20606;-63
2022/03/15 02:34:34;;;;;;;4.32;2.60;;;;;;;20.87;35.52;102804.97;4776728;28;20436;-63
2022/03/15 02:37:00;;;;;;;4.38;2.50;;;;;;;20.78;35.62;102797.84;4773511;28;21893;-63
2022/03/15 02:39:25;;;;;;;3.42;2.63;;;;;;;20.84;35.60;102802.59;4777875;28;20963;-63
2022/03/15 02:41:51;;;;;;;4.15;2.63;;;;;;;20.70;35.42;102774.72;4775142;28;20897;-63
2022/03/15 02:44:17;;;;;;;4.47;2.55;;;;;;;20.81;35.40;102790.44;4771526;28;21204;-63
2022/03/15 02:46:48;;;;;;;3.95;2.80;;;;;;;20.77;35.68;102788.22;4776313;28;20564;-63
2022/03/15 02:49:13;;;;;;;4.80;2.42;;;;;;;20.80;35.59;102788.78;4773047;28;21758;-63
2022/03/15 02:51:39;;;;;;;7.18;2.80;;;;;;;20.71;35.55;102772.91;4774539;28;21004;-63
2022/03/15 02:54:11;;;;;;;2.95;2.58;;;;;;;20.76;35.61;102779.44;4773107;28;20972;-63
2022/03/15 02:56:42;;;;;;;2.80;2.08;;;;;;;20.73;35.70;102779.72;4757060;28;20687;-62
2022/03/15 02:59:14;;;;;;;4.15;2.50;;;;;;;20.77;35.59;102782.94;4776050;28;20603;-62
2022/03/15 03:01:43;;;;;;;5.32;3.00;;;;;;;20.71;35.49;102772.91;4774185;28;20049;-63
2022/03/15 03:04:10;;;;;;;3.10;2.20;;;;;;;20.75;35.34;102787.53;4773992;28;21078;-63
2022/03/15 03:06:41;;;;;;;5.22;2.53;;;;;;;20.74;35.35;102776.09;4773259;28;21460;-63
2022/03/15 03:09:07;;;;;;;5.32;2.55;;;;;;;20.56;35.49;102748.66;4773389;28;20676;-63
2022/03/15 03:11:33;;;;;;;4.43;2.80;;;;;;;20.67;35.65;102775.00;4776045;28;20951;-63
2022/03/15 03:14:00;;;;;;;5.30;2.30;;;;;;;20.70;35.50;102781.81;4773585;28;21009;-63
2022/03/15 03:16:28;;;;;;;4.82;2.30;;;;;;;20.67;35.56;102771.53;4775021;28;21372;-63
2022/03/15 03:18:58;;;;;;;3.10;2.28;;;;;;;20.51;35.64;102749.06;4774519;28;20371;-63
2022/03/15 03:21:25;;;;;;;3.72;2.42;;;;;;;20.67;35.65;102766.22;4773637;28;20773;-64
2022/03/15 03:23:53;;;;;;;4.45;2.58;;;;;;;20.64;35.66;102772.59;4771343;28;21061;-63
2022/03/15 03:26:21;;;;;;;3.97;2.38;;;;;;;20.65;35.67;102779.59;4774242;28;20708;-63
2022/03/15 03:28:49;;;;;;;3.63;2.50;;;;;;;20.54;35.61;102752.41;4773885;28;20048;-63
2022/03/15 03:31:16;;;;;;;3.85;2.47;;;;;;;20.60;35.69;102773.03;4775695;28;21637;-62
2022/03/15 03:33:43;;;;;;;5.50;2.30;;;;;;;20.64;35.56;102769.13;4770333;28;20566;-62
2022/03/15 03:36:10;;;;;;;5.13;2.60;;;;;;;20.64;35.48;102772.59;4772067;28;21553;-63
2022/03/15 03:38:37;;;;;;;4.10;2.35;;;;;;;20.57;35.69;102771.50;4773998;28;21345;-61
2022/03/15 03:41:04;;;;;;;4.78;2.85;;;;;;;20.61;35.63;102767.59;4771583;28;20766;-63
2022/03/15 03:43:30;;;;;;;3.83;2.30;;;;;;;20.58;35.53;102778.47;4773814;28;20612;-63
2022/03/15 03:45:56;;;;;;;3.97;2.38;;;;;;;20.48;35.48;102752.00;4770514;28;20859;-63
2022/03/15 03:48:23;;;;;;;4.25;2.80;;;;;;;20.58;35.44;102773.16;4771612;28;20634;-63
2022/03/15 03:50:50;;;;;;;3.50;2.58;;;;;;;20.59;35.50;102771.34;4774882;28;20764;-63
2022/03/15 03:53:17;;;;;;;3.95;2.40;;;;;;;20.56;35.56;102763.69;4774013;28;21307;-63
2022/03/15 03:55:43;;;;;;;2.85;2.30;;;;;;;20.53;35.61;102756.88;4773278;28;20631;-63
2022/03/15 03:58:09;;;;;;;4.43;2.58;;;;;;;20.54;35.43;102763.00;4775337;28;21160;-63
2022/03/15 04:00:35;;;;;;;5.18;2.72;;;;;;;20.43;35.57;102746.25;4774045;28;20415;-62
2022/03/15 04:03:00;;;;;;;2.35;2.13;;;;;;;20.52;35.67;102763.13;4772942;28;20796;-63
2022/03/15 04:05:30;;;;;;;4.40;2.58;;;;;;;20.55;35.48;102773.44;4768573;28;21034;-63
2022/03/15 04:07:59;;;;;;;4.47;2.35;;;;;;;20.51;35.28;102767.59;4771918;28;20337;-64
2022/03/15 04:10:28;;;;;;;4.13;2.50;;;;;;;20.51;35.44;102764.94;4772954;28;20954;-62
2022/03/15 04:12:55;;;;;;;4.00;2.65;;;;;;;20.43;35.54;102756.84;4753403;28;20790;-63
2022/03/15 04:15:22;;;;;;;6.00;2.70;;;;;;;20.35;35.34;102750.56;4771840;28;21063;-63
2022/03/15 04:17:48;;;;;;;4.22;2.30;;;;;;;20.48;35.52;102759.94;4769895;28;20545;-63
2022/03/15 04:20:14;;;;;;;4.53;2.30;;;;;;;20.34;35.55;102741.78;4773120;28;21011;-63
2022/03/15 04:22:40;;;;;;;4.13;2.38;;;;;;;20.46;35.47;102763.66;4771270;28;20758;-62
2022/03/15 04:25:06;;;;;;;4.20;2.30;;;;;;;20.43;35.55;102759.50;4770548;28;21121;-62
2022/03/15 04:27:32;;;;;;;3.80;2.28;;;;;;;20.44;35.53;102770.91;4771723;28;20595;-64
2022/03/15 04:29:57;;;;;;;4.00;2.40;;;;;;;20.43;35.47;102763.94;4773107;28;21633;-62
2022/03/15 04:32:24;;;;;;;3.28;2.13;;;;;;;20.39;35.58;102760.72;4770954;28;20636;-62
2022/03/15 04:34:49;;;;;;;4.00;2.33;;;;;;;20.39;35.65;102766.00;4773244;28;20530;-62
2022/03/15 04:37:15;;;;;;;5.90;2.90;;;;;;;20.39;35.40;102759.88;4774734;28;21508;-62
2022/03/15 04:39:41;;;;;;;3.28;2.22;;;;;;;20.36;35.52;102768.94;4773084;28;21025;-62
2022/03/15 04:42:07;;;;;;;3.00;2.28;;;;;;;20.33;35.64;102761.28;4771004;28;20714;-63
2022/03/15 04:44:32;;;;;;;3.22;2.42;;;;;;;20.34;35.58;102759.47;4770231;28;20791;-62
2022/03/15 04:46:58;;;;;;;4.13;2.50;;;;;;;20.26;35.36;102744.25;4752546;28;20814;-63
2022/03/15 04:49:24;;;;;;;4.10;2.42;;;;;;;20.20;35.52;102735.06;4773100;28;20692;-62
2022/03/15 04:51:50;;;;;;;3.78;2.30;;;;;;;20.36;35.47;102755.69;4771116;28;21210;-63
2022/03/15 04:54:16;;;;;;;3.20;2.38;;;;;;;20.19;35.44;102732.56;4772272;28;21499;-63
2022/03/15 04:56:41;;;;;;;4.28;2.40;;;;;;;20.29;35.60;102754.59;4771610;28;20880;-62
2022/03/15 04:59:07;;;;;;;2.72;2.40;;;;;;;20.27;35.41;102753.03;4768157;28;20729;-63
2022/03/15 05:01:32;;;;;;;4.35;2.28;;;;;;;20.10;35.64;102723.59;4771797;28;20830;-63
2022/03/15 05:03:58;;;;;;;3.13;2.22;;;;;;;20.12;35.66;102731.44;4774389;28;20069;-63
2022/03/15 05:06:23;;;;;;;2.35;2.00;;;;;;;20.11;35.64;102729.75;4770242;28;20573;-65
2022/03/15 05:08:49;;;;;;;3.40;2.33;;;;;;;20.20;35.57;102755.38;4770145;28;21335;-65
2022/03/15 05:11:18;;;;;;;3.00;2.30;;;;;;;20.18;35.67;102752.88;4769706;28;20621;-62
2022/03/15 05:13:46;;;;;;;3.60;2.15;;;;;;;20.13;35.67;102752.47;4772970;28;20068;-65
2022/03/15 05:16:18;;;;;;;3.92;2.35;;;;;;;20.03;35.69;102738.34;4771733;28;21046;-65
2022/03/15 05:18:51;;;;;;;2.70;2.15;;;;;;;20.14;35.59;102755.94;4770329;28;21348;-64
2022/03/15 05:21:17;;;;;;;3.97;2.53;;;;;;;19.99;35.32;102728.19;4769448;28;20844;-64
2022/03/15 05:23:44;;;;;;;3.35;2.20;;;;;;;20.10;35.73;102758.00;4772187;28;21760;-65
2022/03/15 05:26:10;;;;;;;3.85;2.22;;;;;;;20.13;35.75;102749.81;4770435;28;20029;-64
2022/03/15 05:28:36;;;;;;;3.85;2.30;;;;;;;20.15;35.84;102744.38;4753588;28;20704;-64
2022/03/15 05:31:04;;;;;;;3.58;2.15;;;;;;;20.16;35.65;102751.34;4767030;28;21429;-64
2022/03/15 05:33:30;;;;;;;3.13;2.40;;;;;;;20.13;35.66;102748.97;4770587;28;21574;-64
2022/03/15 05:35:56;;;;;;;3.63;2.40;;;;;;;20.16;35.72;102746.06;4770422;28;20705;-64
2022/03/15 05:38:22;;;;;;;3.53;2.05;;;;;;;20.13;35.71;102744.53;4770202;28;20468;-65
2022/03/15 05:40:48;;;;;;;4.50;2.55;;;;;;;20.17;35.60;102742.44;4767999;28;20430;-64
2022/03/15 05:43:13;;;;;;;3.97;2.33;;;;;;;20.14;35.68;102745.34;4768051;28;20675;-65
2022/03/15 05:45:40;;;;;;;2.95;2.20;;;;;;;20.12;35.70;102736.72;4771483;28;21199;-64
2022/03/15 05:48:06;;;;;;;4.68;2.55;;;;;;;20.10;35.81;102736.81;4770982;28;20716;-65
2022/03/15 05:50:31;;;;;;;3.13;2.20;;;;;;;20.11;35.75;102742.97;4772629;28;20833;-64
2022/03/15 05:52:58;;;;;;;3.53;2.30;;;;;;;20.11;35.90;102742.97;4772190;28;21707;-64
2022/03/15 05:55:24;;;;;;;2.80;2.15;;;;;;;20.08;35.83;102741.41;4771358;28;20975;-64
2022/03/15 05:57:49;;;;;;;3.60;2.05;;;;;;;19.94;35.82;102709.25;4772001;28;21883;-64
2022/03/15 06:00:16;;;;;;;4.63;2.70;;;;;;;20.28;35.59;102720.31;4770204;28;20624;-64
2022/03/15 06:02:42;;;;;;;4.18;2.10;;;;;;;20.73;35.28;102740.03;4752079;28;21877;-63
2022/03/15 06:05:12;;;;;;;3.38;2.28;;;;;;;20.96;34.87;102734.41;4769025;28;20592;-63
2022/03/15 06:07:47;;;;;;;;;;;;;;;21.29;34.58;102733.97;4770470;28;20633;-63
2022/03/15 06:10:15;;;;;;;2.47;2.22;;;;;;;21.61;33.92;102741.56;4768186;28;20674;-63
2022/03/15 06:12:44;;;;;;;3.13;2.15;;;;;;;21.85;33.80;102735.72;4770026;28;20568;-63
2022/03/15 06:15:11;;;;;;;2.13;1.88;;;;;;;21.84;33.65;102743.81;4739007;28;20761;-63
2022/03/15 06:17:48;;;;;;;2.85;2.17;;;;;;;21.74;33.89;102733.28;4769428;28;21299;-63
2022/03/15 06:20:16;;;;;;;2.58;1.77;;;;;;;21.70;34.20;102734.53;4769283;28;21261;-63
2022/03/15 06:22:46;;;;;;;3.05;1.90;;;;;;;21.53;34.12;102736.13;4772324;28;20784;-63
2022/03/15 06:25:12;;;;;;;3.92;2.10;;;;;;;21.44;34.44;102733.53;4768538;28;20517;-63
2022/03/15 06:27:38;;;;;;;3.08;2.25;;;;;;;21.39;34.51;102737.44;4772764;28;20834;-64
2022/03/15 06:30:04;;;;;;;2.13;1.80;;;;;;;21.36;34.69;102745.69;4851451;28;20124;-64
2022/03/15 06:32:33;;;;;;;4.00;2.13;;;;;;;21.30;34.76;102734.81;4848828;28;20506;-63
2022/03/15 06:35:00;;;;;;;3.20;2.30;;;;;;;21.41;34.83;102738.16;4852412;28;20462;-64
2022/03/15 06:37:27;;;;;;;2.95;1.98;;;;;;;21.64;34.29;102729.81;4846807;28;20672;-63
2022/03/15 06:39:52;;;;;;;3.03;2.33;;;;;;;22.07;34.01;102742.47;4850122;28;21320;-64
2022/03/15 06:42:18;;;;;;;2.17;1.88;;;;;;;22.27;33.44;102720.16;4849881;28;21242;-63
2022/03/15 06:44:44;;;;;;;3.17;2.35;;;;;;;22.47;32.89;102725.34;4850341;28;20044;-64
2022/03/15 06:47:10;;;;;;;2.72;2.20;;;;;;;22.58;32.88;102738.38;4851835;28;21171;-63
2022/03/15 06:49:36;;;;;;;2.90;2.10;;;;;;;22.46;33.32;102731.63;4852737;28;21160;-63
2022/03/15 06:52:02;;;;;;;2.35;1.90;;;;;;;22.31;33.35;102715.38;4854528;28;20186;-63
2022/03/15 06:54:28;;;;;;;3.47;2.25;;;;;;;22.26;33.67;102733.56;4855424;28;21628;-64
2022/03/15 06:56:56;;;;;;;3.55;2.30;;;;;;;22.07;33.96;102731.03;4853310;28;20681;-64
2022/03/15 06:59:21;;;;;;;3.00;2.10;;;;;;;21.79;34.12;102709.81;4854960;28;20710;-64
2022/03/15 07:01:47;;;;;;;2.67;2.10;;;;;;;21.86;34.38;102739.22;4852837;28;20084;-64
2022/03/15 07:04:13;;;;;;;3.40;2.13;;;;;;;21.85;34.45;102737.53;4855142;28;21259;-63
2022/03/15 07:06:38;;;;;;;3.45;2.10;;;;;;;21.72;34.70;102729.91;4850034;28;20623;-66
2022/03/15 07:09:04;;;;;;;8.10;2.83;;;;;;;21.72;34.95;102727.25;4777389;28;20164;-65
2022/03/15 07:11:30;;;;;;;3.83;2.40;;;;;;;21.56;35.18;102709.34;4769879;28;20045;-65
2022/03/15 07:13:55;;;;;;;4.25;2.60;;;;;;;21.61;34.87;102727.47;4771264;28;22085;-65
2022/03/15 07:16:24;;;;;;;4.97;2.97;;;;;;;21.53;35.06;102730.81;4776021;28;21196;-64
2022/03/15 07:18:50;;;;;;;6.22;2.85;;;;;;;21.49;35.27;102723.31;4772741;28;20321;-64
2022/03/15 07:21:15;;;;;;;4.55;2.80;;;;;;;21.49;35.29;102724.16;4776393;28;20691;-64
2022/03/15 07:23:43;;;;;;;5.65;2.70;;;;;;;21.64;34.94;102717.41;4820035;28;20628;-64
2022/03/15 07:26:09;;;;;;;3.00;2.30;;;;;;;21.74;34.43;102722.69;4800056;28;21158;-65
2022/03/15 07:28:34;;;;;;;3.97;2.70;;;;;;;21.69;34.79;102711.66;4773345;28;21361;-64
2022/03/15 07:31:00;;;;;;;3.97;2.58;;;;;;;21.66;34.98;102718.09;4815672;28;20975;-65
2022/03/15 07:33:26;;;;;;;4.03;2.10;;;;;;;21.63;34.80;102714.91;4855899;28;20687;-65
2022/03/15 07:35:51;;;;;;;4.70;2.88;;;;;;;21.60;34.91;102725.81;4852896;28;20119;-65
2022/03/15 07:38:17;;;;;;;3.58;2.58;;;;;;;21.56;34.72;102722.63;4851379;28;21936;-65
2022/03/15 07:40:44;;;;;;;3.53;2.60;;;;;;;21.53;34.94;102716.75;4852245;28;20510;-65
2022/03/15 07:43:10;;;;;;;2.47;2.13;;;;;;;21.52;34.79;102715.91;4854053;28;20566;-65
2022/03/15 07:45:36;;;;;;;3.78;2.45;;;;;;;21.55;34.68;102713.00;4852933;28;20466;-65
2022/03/15 07:48:01;;;;;;;3.10;2.47;;;;;;;21.68;34.65;102712.63;4852574;28;21152;-64
2022/03/15 07:50:27;;;;;;;4.10;2.47;;;;;;;21.83;34.22;102710.34;4854597;28;20186;-65
2022/03/15 07:52:53;;;;;;;3.60;2.50;;;;;;;21.90;34.47;102717.56;4854443;28;20640;-65
2022/03/15 07:55:21;;;;;;;4.20;2.78;;;;;;;21.90;34.44;102719.38;4804087;28;21602;-65
2022/03/15 07:57:47;;;;;;;3.25;2.53;;;;;;;21.92;34.30;102728.03;4774811;28;21641;-65
2022/03/15 08:00:14;;;;;;;3.05;2.47;;;;;;;21.86;34.43;102723.28;4796747;28;20392;-65
2022/03/15 08:02:41;;;;;;;2.90;2.42;;;;;;;21.73;34.50;102720.19;4773395;28;21661;-65
2022/03/15 08:05:07;;;;;;;4.15;2.40;;;;;;;21.70;34.64;102715.97;4790874;28;21486;-65
2022/03/15 08:07:35;;;;;;;4.28;2.70;;;;;;;21.69;34.65;102723.09;4853680;28;20150;-65
2022/03/15 08:10:00;;;;;;;2.97;2.38;;;;;;;21.55;34.68;102707.69;4855745;28;20092;-64
2022/03/15 08:12:26;;;;;;;3.55;2.72;;;;;;;21.50;34.66;102699.31;4808141;28;20372;-65
2022/03/15 08:14:52;;;;;;;5.45;2.95;;;;;;;21.64;34.97;102714.75;4771116;28;21001;-69
2022/03/15 08:17:17;;;;;;;5.25;3.00;;;;;;;21.57;35.12;102712.84;4788745;28;20155;-68
2022/03/15 08:19:43;;;;;;;5.05;3.10;;;;;;;21.58;35.44;102715.34;4852226;28;20637;-67
2022/03/15 08:22:09;;;;;;;5.05;2.90;;;;;;;21.59;35.68;102702.94;4807625;28;21591;-67
2022/03/15 08:24:34;;;;;;;4.30;2.83;;;;;;;21.70;35.60;102708.84;4772729;28;20973;-71
2022/03/15 08:27:00;;;;;;;4.70;3.05;;;;;;;21.66;35.92;102707.47;4776862;28;20798;-70
2022/03/15 08:29:26;;;;;;;4.22;2.90;;;;;;;21.81;35.56;102718.44;4768235;28;20187;-71
2022/03/15 08:31:52;;;;;;;5.88;3.50;;;;;;;21.84;35.83;102715.50;4786403;28;20940;-66
2022/03/15 08:34:17;;;;;;;5.18;3.15;;;;;;;21.80;35.67;102711.47;4763969;28;20073;-67
2022/03/15 08:36:44;;;;;;;4.75;2.80;;;;;;;21.74;35.66;102687.38;4779130;28;20971;-68
2022/03/15 08:39:10;;;;;;;6.38;3.13;;;;;;;21.94;35.73;102710.97;4787615;28;21079;-68
2022/03/15 08:41:35;;;;;;;4.72;3.13;;;;;;;21.91;35.81;102700.69;4771027;28;20805;-67
2022/03/15 08:44:01;;;;;;;4.82;3.08;;;;;;;21.99;35.82;102705.22;4810487;28;20693;-73
2022/03/15 08:46:28;;;;;;;4.47;3.13;;;;;;;21.96;35.65;102698.41;4850708;28;20041;-67
2022/03/15 08:48:55;;;;;;;3.83;3.10;;;;;;;21.98;35.56;102711.50;4827594;28;20049;-66
2022/03/15 08:51:20;;;;;;;4.18;2.78;;;;;;;22.04;35.58;102708.25;4847365;28;20653;-70
2022/03/15 08:53:46;;;;;;;5.25;3.35;;;;;;;21.87;35.77;102703.75;4825257;28;20727;-61
2022/03/15 08:56:13;;;;;;;4.60;3.22;;;;;;;21.75;36.24;102702.28;4761144;28;20056;-62
2022/03/15 08:58:38;;;;;;;4.43;3.63;;;;;;;21.69;35.90;102717.78;4790370;28;21362;-62
2022/03/15 09:01:04;;;;;;;5.60;3.20;;;;;;;21.62;36.05;102700.81;4762453;28;21160;-62
2022/03/15 09:03:30;;;;;;;4.28;3.17;;;;;;;21.55;36.12;102693.59;4769999;28;20811;-62
2022/03/15 09:05:55;;;;;;;8.07;3.55;;;;;;;21.82;35.83;102706.84;4770182;28;21187;-65
2022/03/15 09:08:22;;;;;;;5.13;3.30;;;;;;;21.81;36.01;102707.00;4768040;28;20188;-64
2022/03/15 09:10:48;;;;;;;6.05;3.85;;;;;;;21.86;36.40;102712.69;4828709;28;20678;-63
2022/03/15 09:13:15;;;;;;;5.32;3.42;;;;;;;21.85;36.35;102706.56;4784342;28;20718;-69
2022/03/15 09:15:40;;;;;;;4.85;3.70;;;;;;;21.86;35.99;102688.81;4771201;28;20454;-69
2022/03/15 09:18:07;;;;;;;4.90;3.50;;;;;;;22.00;35.82;102702.41;4800156;28;20049;-64
2022/03/15 09:20:33;;;;;;;4.82;3.78;;;;;;;22.06;36.01;102701.00;4855885;28;20041;-65
2022/03/15 09:22:59;;;;;;;6.60;4.50;;;;;;;21.91;35.73;102695.38;4751324;28;20068;-62
2022/03/15 09:25:25;;;;;;;6.70;4.55;;;;;;;21.84;36.00;102696.94;4770252;28;20159;-62
2022/03/15 09:27:50;;;;;;;7.03;5.00;;;;;;;21.75;36.03;102681.91;4748264;28;20178;-70
2022/03/15 09:30:17;;;;;;;6.25;4.40;;;;;;;21.78;35.70;102689.56;4770880;28;20057;-74
2022/03/15 09:32:43;;;;;;;5.95;3.78;;;;;;;21.72;35.98;102684.84;4743660;28;21286;-72
2022/03/15 09:35:09;;;;;;;5.97;3.83;;;;;;;21.85;35.93;102682.69;4773248;28;21261;-71
2022/03/15 09:37:36;;;;;;;6.85;3.97;;;;;;;21.86;35.98;102679.03;4770020;28;22832;-71
2022/03/15 09:40:07;;;;;;;5.93;3.90;;;;;;;21.81;35.87;102661.91;4844638;28;20477;-72
2022/03/15 09:42:35;;;;;;;5.57;4.15;;;;;;;21.94;36.03;102665.06;4831042;28;21683;-73
2022/03/15 09:45:02;;;;;;;6.85;3.70;;;;;;;21.88;35.77;102649.72;4834403;28;20029;-70
2022/03/15 09:47:32;;;;;;;5.95;4.13;;;;;;;22.03;35.92;102661.50;4849482;28;20048;-71
2022/03/15 09:49:59;;;;;;;;;;;;;;;22.03;36.20;102664.16;4823999;28;20813;-72
2022/03/15 09:52:27;;;;;;;6.05;3.72;;;;;;;22.09;35.72;102663.59;4848194;28;20717;-69
2022/03/15 09:54:54;;;;;;;5.90;3.55;;;;;;;22.11;35.76;102658.97;4832367;28;20562;-72
2022/03/15 09:57:20;;;;;;;4.93;3.63;;;;;;;22.10;36.04;102651.16;4826524;28;20691;-69
2022/03/15 09:59:49;;;;;;;5.22;3.85;;;;;;;22.10;36.07;102640.56;4770627;28;20690;-70
2022/03/15 10:02:16;;;;;;;5.88;3.67;;;;;;;22.15;35.83;102651.53;4762952;28;20787;-70
2022/03/15 10:04:42;;;;;;;5.88;3.85;;;;;;;21.91;36.28;102631.72;4767227;28;21138;-72
2022/03/15 10:07:08;;;;;;;5.07;3.80;;;;;;;21.88;36.51;102628.50;4752995;28;21769;-72
2022/03/15 10:09:34;;;;;;;6.03;4.00;;;;;;;21.95;36.40;102641.03;4778052;28;20290;-72
2022/03/15 10:12:01;;;;;;;5.72;3.70;;;;;;;22.03;36.06;102641.09;4760900;28;20257;-74
2022/03/15 10:14:27;;;;;;;5.03;3.78;;;;;;;21.93;35.97;102608.53;4746086;28;22117;-75
2022/03/15 10:17:01;;;;;;;5.70;3.72;;;;;;;22.01;36.25;102615.72;4770036;28;20649;-73
2022/03/15 10:19:28;;;;;;;5.85;4.15;;;;;;;22.11;35.91;102619.16;4773398;28;20971;-73
2022/03/15 10:21:56;;;;;;;6.15;4.10;;;;;;;22.17;35.79;102634.47;4796338;28;20920;-72
2022/03/15 10:24:26;;;;;;;4.40;3.60;;;;;;;22.24;36.02;102635.53;4759883;28;20410;-71
2022/03/15 10:26:54;;;;;;;6.13;3.72;;;;;;;22.20;35.87;102628.84;4769415;28;20947;-71
2022/03/15 10:29:22;;;;;;;7.90;4.47;;;;;;;22.05;36.26;102637.50;4757766;28;20112;-69
2022/03/15 10:31:48;;;;;;;7.68;4.28;;;;;;;21.79;36.84;102602.91;4851444;28;20671;-69
2022/03/15 10:34:16;;;;;;;8.27;4.10;;;;;;;22.02;36.46;102628.00;4764440;28;20819;-70
2022/03/15 10:36:47;;;;;;;8.13;4.43;;;;;;;22.14;36.25;102626.81;4772632;28;20514;-74
2022/03/15 10:39:16;;;;;;;9.68;5.28;;;;;;;21.96;36.29;102594.13;4785399;28;20041;-74
2022/03/15 10:42:00;;;;;;;7.88;5.10;;;;;;;22.18;36.09;102622.03;4856356;28;20060;-71
2022/03/15 10:44:26;;;;;;;7.50;4.68;;;;;;;22.11;35.77;102602.41;4841457;28;20913;-73
2022/03/15 10:47:06;;;;;;;8.88;4.65;;;;;;;22.29;36.02;102620.00;4856143;28;20775;-70
2022/03/15 10:50:04;;;;;;;7.28;4.78;;;;;;;22.23;35.67;102609.97;4840186;28;21015;-69
2022/03/15 10:52:33;;;;;;;7.28;4.72;;;;;;;22.26;35.72;102615.00;4848553;28;21337;-68
2022/03/15 10:55:29;;;;;;;7.75;4.43;;;;;;;22.31;35.65;102603.91;4833778;28;20909;-69
2022/03/15 10:57:56;;;;;;;6.43;4.20;;;;;;;22.26;35.87;102600.88;4838039;28;20720;-68
2022/03/15 11:00:28;;;;;;;6.53;4.32;;;;;;;22.28;35.47;102602.41;4825647;28;20259;-70
2022/03/15 11:02:55;;;;;;;6.82;4.00;;;;;;;22.22;35.53;102591.56;4846189;28;20722;-67
2022/03/15 11:05:31;;;;;;;6.10;3.78;;;;;;;22.03;36.11;102564.16;4771011;28;21475;-70
2022/03/15 11:08:03;;;;;;;7.00;4.35;;;;;;;22.14;36.20;102596.81;4773629;28;20645;-66
2022/03/15 11:10:29;;;;;;;5.28;3.83;;;;;;;22.06;36.46;102602.03;4756094;28;20894;-65
2022/03/15 11:13:06;;;;;;;9.00;4.10;;;;;;;22.02;36.37;102594.34;4768126;28;20789;-66
2022/03/15 11:15:37;;;;;;;6.45;4.00;;;;;;;22.01;36.57;102592.66;4752191;28;20407;-66
2022/03/15 11:18:05;;;;;;;4.75;3.42;;;;;;;22.02;36.40;102586.38;4776631;28;21003;-66
2022/03/15 11:20:38;;;;;;;5.90;3.50;;;;;;;22.01;36.35;102589.19;4771513;28;21094;-66
2022/03/15 11:23:07;;;;;;;6.00;3.72;;;;;;;21.92;36.17;102580.34;4759314;28;20518;-66
2022/03/15 11:25:48;;;;;;;5.97;3.80;;;;;;;21.95;36.62;102590.63;4785272;28;20609;-65